Latest Weather Observations for Bedout Island

IDW60801

Issued at 10:35 am WST Wednesday 26 November 2014 (issued every 30 minutes, with the page automatically refreshed every 10 minutes)

About weather observations | Map of weather stations | Latest weather observations for WA | Other Formats
Station Details ID: 004100 Name: BEDOUT ISLAND Lat: -19.59 Lon: 119.10 Height: 8.6 m
Data from the previous 72 hours. | See also: Recent months for locations in Western Australia
Date/Time
WST
Temp
°C
App
Temp
°C
Dew
Point
Rel
Hum
%
Delta-T
°C
Wind Press
QNH
hPa
Press
MSL
hPa
Rain
since 9 am
mm
Dir
 
Spd
km/h
Gust
km/h
Spd
kts
Gust
kts
26/10:30am 32.1 31.3 21.6 53 7.1 ENE 28 32 15 17 1009.2 - -
26/10:00am 31.5 30.1 21.1 54 7.0 ENE 30 33 16 18 1009.4 - -
26/09:30am 31.1 28.8 21.3 56 6.6 E 35 41 19 22 1009.4 - -
26/09:00am 30.6 28.1 20.8 56 6.5 E 35 41 19 22 1009.4 1009.3 -
26/08:30am 30.5 27.7 21.0 57 6.4 E 37 43 20 23 1009.5 - -
26/08:00am 29.7 26.5 20.3 57 6.2 E 37 43 20 23 1009.6 - -
26/07:30am 29.5 25.5 20.1 57 6.2 E 41 46 22 25 1009.8 - -
26/07:00am 28.8 25.6 20.3 60 5.6 E 37 44 20 24 1009.7 - -
26/06:30am 28.4 24.5 20.4 62 5.3 E 41 50 22 27 1010.0 - -
26/06:00am 27.9 23.4 19.9 61 5.2 ESE 43 50 23 27 1009.9 1009.8 -
26/05:30am 27.7 24.2 20.5 65 4.7 ESE 39 46 21 25 1009.5 - -
26/05:00am 28.0 23.6 20.6 64 4.9 ESE 44 50 24 27 1009.1 - -
26/04:30am 28.0 23.3 20.6 64 4.9 ESE 46 56 25 30 1008.5 - -
26/04:00am 28.2 22.9 21.0 65 4.8 ESE 50 56 27 30 1008.1 - -
26/03:30am 28.4 25.2 21.7 67 4.5 SE 41 48 22 26 1008.2 - -
26/03:00am 29.1 26.2 21.6 64 5.0 SE 39 46 21 25 1008.1 1008.0 -
26/02:30am 29.3 27.6 21.3 62 5.3 SE 32 39 17 21 1008.3 - -
26/02:00am 29.5 27.0 20.9 60 5.7 SE 35 43 19 23 1008.3 - -
26/01:30am 29.4 28.1 22.1 65 4.9 SE 32 43 17 23 1008.5 - -
26/01:16am 29.3 27.2 22.3 66 4.7 SE 37 43 20 23 1008.6 - -
26/01:00am 28.6 30.0 23.5 74 3.5 S 22 26 12 14 1008.5 - -
26/12:30am 28.8 28.2 24.4 77 3.1 SSE 35 44 19 24 1009.4 - -
26/12:18am 28.5 27.1 24.3 78 2.9 S 39 48 21 26 1009.4 - -
26/12:00am 28.1 28.7 24.1 79 2.8 SSW 28 32 15 17 1008.2 1008.1 -
 
Date/Time
WST
Temp
°C
App
Temp
°C
Dew
Point
Rel
Hum
%
Delta-T
°C
Wind Press
QNH
hPa
Press
MSL
hPa
Rain
since 9 am
mm
Dir
 
Spd
km/h
Gust
km/h
Spd
kts
Gust
kts
25/11:30pm 27.9 29.1 23.9 79 2.8 WSW 24 28 13 15 1008.0 - -
25/11:00pm 28.1 28.7 24.1 79 2.8 SW 28 33 15 18 1008.3 - -
25/10:53pm 27.9 28.0 23.9 79 2.8 SW 30 35 16 19 1008.1 - -
25/10:30pm 28.1 27.0 24.7 82 2.4 W 39 46 21 25 1007.1 - -
25/10:00pm 28.1 27.0 24.7 82 2.4 W 39 44 21 24 1007.0 - -
25/09:30pm 28.2 27.6 25.0 83 2.2 WNW 37 44 20 24 1006.7 - -
25/09:00pm 28.2 26.9 25.0 83 2.2 WNW 41 46 22 25 1006.5 1006.4 -
25/08:30pm 28.0 27.3 24.8 83 2.2 WNW 37 43 20 23 1006.5 - -
25/08:00pm 28.1 28.3 25.1 84 2.1 WNW 33 39 18 21 1006.4 - -
25/07:30pm 28.2 28.1 25.2 84 2.1 WNW 35 39 19 21 1006.2 - -
25/07:00pm 28.3 28.7 25.3 84 2.1 WNW 33 39 18 21 1005.8 - -
25/06:30pm 28.4 28.9 25.2 83 2.3 NW 32 35 17 19 1005.7 - -
25/06:00pm 29.0 29.3 25.2 80 2.7 NW 33 37 18 20 1005.6 1005.5 -
25/05:30pm 29.8 30.4 25.3 77 3.2 NW 32 35 17 19 1005.5 - -
25/05:00pm 30.6 31.9 25.2 73 3.8 NW 28 33 15 18 1005.4 - -
25/04:30pm 31.2 32.5 25.3 71 4.2 NW 28 33 15 18 1005.3 - -
25/04:00pm 31.7 33.4 25.3 69 4.5 NW 26 30 14 16 1005.3 - -
25/03:30pm 32.2 34.3 25.3 67 4.9 NW 24 28 13 15 1005.6 - -
25/03:00pm 32.7 35.0 25.0 64 5.5 NW 22 26 12 14 1006.1 1006.0 -
25/02:30pm 32.5 34.8 24.5 62 5.6 NW 20 24 11 13 1006.5 - -
25/02:00pm 32.7 35.5 25.0 64 5.4 NW 19 22 10 12 1006.9 - -
25/01:30pm 32.7 35.5 25.0 64 5.4 NW 19 20 10 11 1007.0 - -
25/01:00pm 32.9 35.7 25.2 64 5.5 NW 20 24 11 13 1007.2 - -
25/12:30pm 32.8 35.5 25.1 64 5.4 NW 20 24 11 13 1007.4 - -
25/12:00pm 32.6 35.2 24.9 64 5.4 NW 20 24 11 13 1007.7 1007.6 -
25/11:30am 32.1 34.8 24.7 65 5.2 NW 19 20 10 11 1008.3 - -
25/11:00am 32.5 36.0 24.8 64 5.4 WNW 15 17 8 9 1008.6 - -
25/10:30am 33.0 37.0 25.0 63 5.7 W 13 13 7 7 1008.8 - -
25/10:00am 33.3 37.3 25.0 61 5.9 W 13 15 7 8 1009.0 - -
25/09:30am 33.0 36.4 24.7 61 5.8 WSW 15 17 8 9 1009.0 - -
25/09:00am 32.0 35.0 24.6 65 5.2 WSW 17 19 9 10 1008.9 1008.8 -
25/08:30am 32.1 35.3 24.9 65 5.1 WSW 17 19 9 10 1008.9 - -
25/08:00am 31.8 35.0 24.9 67 4.9 WSW 17 22 9 12 1008.7 - -
25/07:30am 30.8 33.3 24.4 68 4.5 WSW 19 20 10 11 1008.5 - -
25/07:00am 30.1 32.8 24.7 73 3.8 WSW 19 22 10 12 1008.5 - -
25/06:30am 29.4 32.1 24.7 76 3.3 WSW 19 22 10 12 1008.4 - -
25/06:00am 28.2 30.4 24.2 79 2.8 WSW 20 22 11 12 1008.3 1008.2 -
25/05:30am 27.8 28.6 23.8 79 2.8 WSW 26 30 14 16 1007.9 - -
25/05:00am 27.8 28.2 23.8 79 2.8 WSW 28 32 15 17 1007.5 - -
25/04:30am 28.0 27.8 23.4 76 3.2 WSW 30 32 16 17 1007.3 - -
25/04:00am 28.1 28.2 23.2 74 3.3 WSW 28 32 15 17 1007.3 - -
25/03:30am 28.1 27.2 22.8 73 3.6 WSW 32 35 17 19 1007.2 - -
25/03:00am 28.1 27.1 22.6 72 3.7 WSW 32 35 17 19 1007.2 1007.1 -
25/02:30am 28.2 26.9 23.1 74 3.5 WSW 35 41 19 22 1007.1 - -
25/02:00am 27.9 26.0 22.8 74 3.5 W 37 43 20 23 1007.1 - -
25/01:30am 28.1 26.6 23.5 76 3.2 W 37 43 20 23 1007.3 - -
25/01:00am 28.1 27.1 23.7 77 3.0 W 35 43 19 23 1007.5 - -
25/12:30am 28.0 27.1 23.8 78 2.9 W 35 41 19 22 1007.7 - -
25/12:00am 28.0 27.6 24.0 79 2.8 WSW 33 39 18 21 1008.0 1007.9 -
 
Date/Time
WST
Temp
°C
App
Temp
°C
Dew
Point
Rel
Hum
%
Delta-T
°C
Wind Press
QNH
hPa
Press
MSL
hPa
Rain
since 9 am
mm
Dir
 
Spd
km/h
Gust
km/h
Spd
kts
Gust
kts
24/11:30pm 28.3 27.8 23.9 77 3.0 W 33 39 18 21 1008.3 - -
24/11:00pm 28.0 27.8 24.0 79 2.8 W 32 35 17 19 1008.5 - -
24/10:30pm 27.9 28.0 24.5 82 2.4 W 32 35 17 19 1008.7 - -
24/10:00pm 27.9 28.3 25.1 85 2.0 W 32 37 17 20 1008.9 - -
24/09:30pm 27.8 28.0 25.0 85 2.0 W 33 39 18 21 1008.7 - -
24/09:00pm 27.9 28.3 25.3 86 1.8 W 33 39 18 21 1008.8 1008.7 -
24/08:30pm 27.7 28.1 25.3 87 1.7 WNW 33 37 18 20 1008.6 - -
24/08:00pm 27.5 28.3 25.1 87 1.7 WNW 30 33 16 18 1008.5 - -
24/07:30pm 27.6 29.2 25.2 87 1.7 WNW 26 32 14 17 1008.3 - -
24/07:00pm 27.7 29.4 25.3 87 1.7 NW 26 30 14 16 1008.0 - -
24/06:30pm 28.0 29.3 25.2 85 2.0 WNW 28 32 15 17 1007.8 - -
24/06:00pm 28.3 29.9 25.1 83 2.2 NW 26 30 14 16 1007.4 1007.3 -
24/05:30pm 28.8 30.4 25.2 81 2.5 NW 26 30 14 16 1007.2 - -
24/05:00pm 29.1 30.7 25.1 79 2.8 NW 26 30 14 16 1007.0 - -
24/04:30pm 29.8 30.8 24.7 74 3.6 WNW 28 30 15 16 1007.0 - -
24/04:00pm 31.4 33.2 25.5 71 4.2 WNW 26 32 14 17 1007.0 - -
24/03:30pm 31.6 32.9 25.2 69 4.5 WNW 28 32 15 17 1007.0 - -
24/03:00pm 31.6 32.9 25.2 69 4.5 WNW 28 32 15 17 1007.2 1007.1 -
24/02:30pm 31.8 33.4 25.2 68 4.7 WNW 26 30 14 16 1007.4 - -
24/02:00pm 32.4 34.0 25.2 66 5.1 WNW 26 30 14 16 1007.6 - -
24/01:30pm 32.5 34.4 25.6 67 4.9 WNW 26 30 14 16 1007.8 - -
24/01:00pm 32.5 34.8 25.6 67 4.9 WNW 24 30 13 16 1008.1 - -
24/12:30pm 32.6 34.9 25.7 67 4.9 W 24 28 13 15 1008.2 - -
24/12:00pm 31.9 33.9 25.2 67 4.7 W 24 28 13 15 1008.7 1008.6 -
24/11:30am 31.6 34.0 25.2 69 4.5 W 22 26 12 14 1009.1 - -
24/11:00am 31.7 34.5 25.3 69 4.5 W 20 24 11 13 1009.4 - -
24/10:30am 31.9 34.5 25.5 69 4.5 W 22 26 12 14 1009.7 - -
24/10:00am 31.5 33.5 25.1 69 4.5 W 24 28 13 15 1009.8 - -
24/09:30am 31.7 33.7 25.1 68 4.7 W 24 26 13 14 1010.1 - -
24/09:00am 31.3 33.3 25.2 70 4.3 W 24 28 13 15 1010.0 1009.9 -
24/08:30am 30.6 32.3 24.7 71 4.1 W 24 28 13 15 1009.9 - -
24/08:00am 30.1 31.2 24.9 73 3.6 WSW 28 32 15 17 1009.6 - -
24/07:30am 29.3 30.2 24.6 76 3.3 WSW 28 33 15 18 1009.5 - -
24/07:00am 28.7 29.0 24.3 77 3.1 WSW 30 32 16 17 1009.4 - -
24/06:30am 27.7 27.7 23.7 79 2.7 W 30 32 16 17 1009.4 - -
24/06:00am 27.3 27.4 23.3 79 2.7 W 28 32 15 17 1009.2 1009.1 -
24/05:30am 26.9 26.6 23.2 80 2.5 W 30 32 16 17 1009.0 - -
24/05:00am 26.8 26.4 23.1 80 2.5 W 30 32 16 17 1008.7 - -
24/04:30am 27.0 26.2 23.0 79 2.7 W 32 33 17 18 1008.6 - -
24/04:00am 27.2 26.3 22.8 77 3.0 W 32 35 17 19 1008.5 - -
24/03:30am 27.5 26.4 22.4 73 3.4 W 32 35 17 19 1008.3 - -
24/03:00am 27.3 26.6 22.5 75 3.2 W 30 33 16 18 1008.4 1008.3 -
24/02:30am 27.3 26.1 22.3 74 3.4 W 32 35 17 19 1008.5 - -
24/02:00am 27.2 27.2 23.0 78 2.9 W 28 32 15 17 1008.8 - -
24/01:30am 27.0 27.0 23.0 79 2.7 W 28 32 15 17 1009.0 - -
24/01:00am 27.1 27.4 23.6 81 2.4 W 28 32 15 17 1009.2 - -
24/12:30am 27.0 27.5 23.3 80 2.5 W 26 30 14 16 1009.4 - -
24/12:00am 27.0 26.6 23.0 79 2.7 W 30 33 16 18 1009.6 1009.5 -
 
Date/Time
WST
Temp
°C
App
Temp
°C
Dew
Point
Rel
Hum
%
Delta-T
°C
Wind Press
QNH
hPa
Press
MSL
hPa
Rain
since 9 am
mm
Dir
 
Spd
km/h
Gust
km/h
Spd
kts
Gust
kts
23/11:30pm 27.1 26.8 23.3 80 2.6 W 30 32 16 17 1009.8 - -
23/11:00pm 27.1 27.2 23.3 80 2.6 W 28 32 15 17 1010.1 - -
23/10:30pm 27.0 27.7 23.7 82 2.3 W 26 32 14 17 1010.3 - -
23/10:00pm 27.1 27.6 24.0 83 2.1 W 28 32 15 17 1010.4 - -
23/09:30pm 27.0 27.5 23.9 83 2.1 W 28 32 15 17 1010.0 - -
23/09:00pm 27.4 27.8 24.5 84 2.0 W 30 33 16 18 1009.8 1009.7 -
23/08:30pm 27.4 27.9 24.0 82 2.3 W 28 33 15 18 1009.6 - -
23/08:00pm 27.3 27.4 24.0 82 2.3 WNW 30 35 16 19 1009.2 - -
23/07:30pm 27.4 27.1 23.8 81 2.5 WNW 32 35 17 19 1008.9 - -
23/07:00pm 27.5 27.7 23.5 79 2.7 WNW 28 32 15 17 1008.8 - -
23/06:30pm 27.7 27.7 23.7 79 2.7 WNW 30 33 16 18 1008.2 - -
23/06:00pm 28.3 28.5 24.1 78 2.9 WNW 30 33 16 18 1008.1 1008.0 -
23/05:30pm 28.4 28.1 23.3 74 3.5 WNW 30 35 16 19 1007.9 - -
23/05:00pm 29.7 29.5 24.1 72 3.9 WNW 32 33 17 18 1007.7 - -
23/04:30pm 29.2 29.7 23.9 73 3.7 WNW 28 32 15 17 1007.7 - -
23/04:00pm 30.6 31.3 24.3 69 4.4 WNW 28 32 15 17 1007.6 - -
23/03:30pm 31.1 32.8 24.7 68 4.5 WNW 24 30 13 16 1007.7 - -
23/03:00pm 31.5 33.2 24.6 67 4.8 WNW 24 28 13 15 1008.0 1007.9 -
23/02:30pm 31.6 33.6 24.5 66 5.0 WNW 22 26 12 14 1008.3 - -
23/02:00pm 31.5 33.4 24.4 66 5.0 W 22 26 12 14 1008.2 - -
23/01:30pm 31.9 33.9 24.5 65 5.2 WNW 22 26 12 14 1008.7 - -
23/01:00pm 32.2 34.1 25.0 65 5.1 W 24 28 13 15 1009.0 - -
23/12:30pm 31.7 33.4 24.6 66 5.0 W 24 28 13 15 1009.3 - -
23/12:00pm 31.7 33.4 25.3 69 4.5 W 26 30 14 16 1009.6 1009.5 -
23/11:30am 31.6 32.4 25.0 68 4.7 W 30 32 16 17 1009.8 - -
23/11:00am 32.2 34.3 25.3 67 4.9 W 24 28 13 15 1009.8 - -

Other Formats:

Comma delimited format used in spreadsheet applications
http://www.bom.gov.au/fwo/IDW60801/IDW60801.94310.axf

JavaScript Object Notation format (JSON) in row-major order
http://www.bom.gov.au/fwo/IDW60801/IDW60801.94310.json